sensor_id;sensor_type;location;lat;lon;timestamp;P1;durP1;ratioP1;P2;durP2;ratioP2
10471;SDS011;5283;48.876;8.962;2022-08-03T00:01:31;3.37;;;3.17;;
10471;SDS011;5283;48.876;8.962;2022-08-03T00:03:59;3.80;;;3.50;;
10471;SDS011;5283;48.876;8.962;2022-08-03T00:06:25;4.53;;;3.60;;
10471;SDS011;5283;48.876;8.962;2022-08-03T00:08:52;3.27;;;3.07;;
10471;SDS011;5283;48.876;8.962;2022-08-03T00:11:19;4.97;;;3.50;;
10471;SDS011;5283;48.876;8.962;2022-08-03T00:13:46;3.67;;;3.37;;
10471;SDS011;5283;48.876;8.962;2022-08-03T00:16:13;3.43;;;3.13;;
10471;SDS011;5283;48.876;8.962;2022-08-03T00:18:40;3.53;;;3.23;;
10471;SDS011;5283;48.876;8.962;2022-08-03T00:21:07;4.30;;;3.40;;
10471;SDS011;5283;48.876;8.962;2022-08-03T00:23:34;3.70;;;3.40;;
10471;SDS011;5283;48.876;8.962;2022-08-03T00:26:01;3.63;;;3.33;;
10471;SDS011;5283;48.876;8.962;2022-08-03T00:28:28;4.23;;;3.60;;
10471;SDS011;5283;48.876;8.962;2022-08-03T00:30:55;4.20;;;3.47;;
10471;SDS011;5283;48.876;8.962;2022-08-03T00:33:21;3.60;;;3.40;;
10471;SDS011;5283;48.876;8.962;2022-08-03T00:35:48;3.50;;;3.30;;
10471;SDS011;5283;48.876;8.962;2022-08-03T00:38:16;4.10;;;3.80;;
10471;SDS011;5283;48.876;8.962;2022-08-03T00:40:44;4.47;;;3.80;;
10471;SDS011;5283;48.876;8.962;2022-08-03T00:43:11;3.83;;;3.60;;
10471;SDS011;5283;48.876;8.962;2022-08-03T00:45:38;3.63;;;3.30;;
10471;SDS011;5283;48.876;8.962;2022-08-03T00:48:07;5.77;;;3.70;;
10471;SDS011;5283;48.876;8.962;2022-08-03T00:50:38;3.70;;;3.40;;
10471;SDS011;5283;48.876;8.962;2022-08-03T00:53:08;4.50;;;3.53;;
10471;SDS011;5283;48.876;8.962;2022-08-03T00:55:37;3.93;;;3.63;;
10471;SDS011;5283;48.876;8.962;2022-08-03T00:58:04;4.10;;;3.70;;
10471;SDS011;5283;48.876;8.962;2022-08-03T01:00:32;3.90;;;3.60;;
10471;SDS011;5283;48.876;8.962;2022-08-03T01:03:05;4.93;;;3.57;;
10471;SDS011;5283;48.876;8.962;2022-08-03T01:05:38;4.17;;;3.77;;
10471;SDS011;5283;48.876;8.962;2022-08-03T01:11:11;4.80;;;3.63;;
10471;SDS011;5283;48.876;8.962;2022-08-03T01:13:56;4.37;;;3.90;;
10471;SDS011;5283;48.876;8.962;2022-08-03T01:16:47;6.30;;;3.80;;
10471;SDS011;5283;48.876;8.962;2022-08-03T01:25:09;3.90;;;3.57;;
10471;SDS011;5283;48.876;8.962;2022-08-03T01:28:07;4.60;;;3.70;;
10471;SDS011;5283;48.876;8.962;2022-08-03T01:30:48;4.03;;;3.20;;
10471;SDS011;5283;48.876;8.962;2022-08-03T01:33:19;4.17;;;3.87;;
10471;SDS011;5283;48.876;8.962;2022-08-03T01:35:52;5.20;;;3.60;;
10471;SDS011;5283;48.876;8.962;2022-08-03T01:38:25;4.00;;;3.70;;
10471;SDS011;5283;48.876;8.962;2022-08-03T01:40:55;5.27;;;3.70;;
10471;SDS011;5283;48.876;8.962;2022-08-03T01:43:26;3.47;;;3.27;;
10471;SDS011;5283;48.876;8.962;2022-08-03T01:45:55;3.87;;;3.50;;
10471;SDS011;5283;48.876;8.962;2022-08-03T01:48:23;5.77;;;3.67;;
10471;SDS011;5283;48.876;8.962;2022-08-03T01:50:53;3.43;;;3.17;;
10471;SDS011;5283;48.876;8.962;2022-08-03T01:53:21;3.80;;;3.50;;
10471;SDS011;5283;48.876;8.962;2022-08-03T01:55:51;4.43;;;3.60;;
10471;SDS011;5283;48.876;8.962;2022-08-03T01:58:20;4.47;;;3.60;;
10471;SDS011;5283;48.876;8.962;2022-08-03T02:00:49;4.07;;;3.77;;
10471;SDS011;5283;48.876;8.962;2022-08-03T02:03:17;4.50;;;3.77;;
10471;SDS011;5283;48.876;8.962;2022-08-03T02:05:46;4.10;;;3.70;;
10471;SDS011;5283;48.876;8.962;2022-08-03T02:08:16;6.40;;;3.80;;
10471;SDS011;5283;48.876;8.962;2022-08-03T02:10:44;4.23;;;3.93;;
10471;SDS011;5283;48.876;8.962;2022-08-03T02:13:12;4.40;;;4.03;;
10471;SDS011;5283;48.876;8.962;2022-08-03T02:15:41;3.43;;;3.23;;
10471;SDS011;5283;48.876;8.962;2022-08-03T02:18:09;3.73;;;3.53;;
10471;SDS011;5283;48.876;8.962;2022-08-03T02:20:37;3.77;;;3.53;;
10471;SDS011;5283;48.876;8.962;2022-08-03T02:23:05;3.50;;;3.30;;
10471;SDS011;5283;48.876;8.962;2022-08-03T02:25:32;4.17;;;3.67;;
10471;SDS011;5283;48.876;8.962;2022-08-03T02:28:05;3.83;;;3.63;;
10471;SDS011;5283;48.876;8.962;2022-08-03T02:30:37;4.50;;;4.10;;
10471;SDS011;5283;48.876;8.962;2022-08-03T02:33:06;4.93;;;3.63;;
10471;SDS011;5283;48.876;8.962;2022-08-03T02:35:37;4.87;;;3.90;;
10471;SDS011;5283;48.876;8.962;2022-08-03T02:38:06;4.20;;;3.70;;
10471;SDS011;5283;48.876;8.962;2022-08-03T02:40:35;4.53;;;3.83;;
10471;SDS011;5283;48.876;8.962;2022-08-03T02:43:02;4.07;;;3.77;;
10471;SDS011;5283;48.876;8.962;2022-08-03T02:45:34;4.30;;;3.83;;
10471;SDS011;5283;48.876;8.962;2022-08-03T02:48:06;4.10;;;3.70;;
10471;SDS011;5283;48.876;8.962;2022-08-03T02:50:35;3.70;;;3.40;;
10471;SDS011;5283;48.876;8.962;2022-08-03T02:53:03;3.83;;;3.53;;
10471;SDS011;5283;48.876;8.962;2022-08-03T02:55:32;4.40;;;4.00;;
10471;SDS011;5283;48.876;8.962;2022-08-03T02:58:01;4.13;;;3.83;;
10471;SDS011;5283;48.876;8.962;2022-08-03T03:00:30;4.27;;;3.97;;
10471;SDS011;5283;48.876;8.962;2022-08-03T03:02:58;7.20;;;4.20;;
10471;SDS011;5283;48.876;8.962;2022-08-03T03:05:27;3.90;;;3.60;;
10471;SDS011;5283;48.876;8.962;2022-08-03T03:07:55;4.47;;;4.07;;
10471;SDS011;5283;48.876;8.962;2022-08-03T03:10:23;4.50;;;3.80;;
10471;SDS011;5283;48.876;8.962;2022-08-03T03:12:51;4.53;;;4.13;;
10471;SDS011;5283;48.876;8.962;2022-08-03T03:15:22;4.50;;;4.10;;
10471;SDS011;5283;48.876;8.962;2022-08-03T03:17:50;4.73;;;4.00;;
10471;SDS011;5283;48.876;8.962;2022-08-03T03:20:19;4.40;;;4.10;;
10471;SDS011;5283;48.876;8.962;2022-08-03T03:22:47;5.60;;;4.03;;
10471;SDS011;5283;48.876;8.962;2022-08-03T03:25:14;4.23;;;3.93;;
10471;SDS011;5283;48.876;8.962;2022-08-03T03:27:42;5.67;;;4.47;;
10471;SDS011;5283;48.876;8.962;2022-08-03T03:30:09;5.00;;;3.87;;
10471;SDS011;5283;48.876;8.962;2022-08-03T03:32:37;8.03;;;4.23;;
10471;SDS011;5283;48.876;8.962;2022-08-03T03:35:05;5.73;;;4.07;;
10471;SDS011;5283;48.876;8.962;2022-08-03T03:37:32;4.40;;;4.03;;
10471;SDS011;5283;48.876;8.962;2022-08-03T03:39:59;4.67;;;4.10;;
10471;SDS011;5283;48.876;8.962;2022-08-03T03:42:26;5.07;;;4.47;;
10471;SDS011;5283;48.876;8.962;2022-08-03T03:44:52;4.30;;;3.97;;
10471;SDS011;5283;48.876;8.962;2022-08-03T03:47:19;6.37;;;4.57;;
10471;SDS011;5283;48.876;8.962;2022-08-03T03:49:46;4.23;;;3.93;;
10471;SDS011;5283;48.876;8.962;2022-08-03T03:52:13;4.43;;;4.03;;
10471;SDS011;5283;48.876;8.962;2022-08-03T03:54:42;4.77;;;4.33;;
10471;SDS011;5283;48.876;8.962;2022-08-03T03:57:10;4.73;;;4.33;;
10471;SDS011;5283;48.876;8.962;2022-08-03T03:59:40;5.00;;;4.60;;
10471;SDS011;5283;48.876;8.962;2022-08-03T04:02:08;4.37;;;3.97;;
10471;SDS011;5283;48.876;8.962;2022-08-03T04:04:36;5.00;;;4.60;;
10471;SDS011;5283;48.876;8.962;2022-08-03T04:07:23;4.73;;;4.33;;
10471;SDS011;5283;48.876;8.962;2022-08-03T04:10:14;4.33;;;3.93;;
10471;SDS011;5283;48.876;8.962;2022-08-03T04:13:05;4.50;;;4.10;;
10471;SDS011;5283;48.876;8.962;2022-08-03T04:15:35;4.30;;;3.90;;
10471;SDS011;5283;48.876;8.962;2022-08-03T04:18:04;6.50;;;4.10;;
10471;SDS011;5283;48.876;8.962;2022-08-03T04:20:34;5.07;;;4.47;;
10471;SDS011;5283;48.876;8.962;2022-08-03T04:23:02;5.70;;;4.23;;
10471;SDS011;5283;48.876;8.962;2022-08-03T04:25:31;4.50;;;4.10;;
10471;SDS011;5283;48.876;8.962;2022-08-03T04:28:02;4.67;;;4.17;;
10471;SDS011;5283;48.876;8.962;2022-08-03T04:30:30;4.50;;;3.60;;
10471;SDS011;5283;48.876;8.962;2022-08-03T04:33:01;4.47;;;3.63;;
10471;SDS011;5283;48.876;8.962;2022-08-03T04:35:28;6.80;;;3.80;;
10471;SDS011;5283;48.876;8.962;2022-08-03T04:38:00;3.57;;;3.03;;
10471;SDS011;5283;48.876;8.962;2022-08-03T04:40:35;7.97;;;3.30;;
10471;SDS011;5283;48.876;8.962;2022-08-03T04:43:04;7.53;;;3.00;;
10471;SDS011;5283;48.876;8.962;2022-08-03T04:45:33;3.07;;;2.80;;
10471;SDS011;5283;48.876;8.962;2022-08-03T04:48:01;2.70;;;2.50;;
10471;SDS011;5283;48.876;8.962;2022-08-03T04:50:29;2.60;;;2.40;;
10471;SDS011;5283;48.876;8.962;2022-08-03T04:52:56;3.40;;;2.67;;
10471;SDS011;5283;48.876;8.962;2022-08-03T04:55:30;2.87;;;2.33;;
10471;SDS011;5283;48.876;8.962;2022-08-03T04:57:58;2.60;;;2.27;;
10471;SDS011;5283;48.876;8.962;2022-08-03T05:00:25;3.40;;;2.23;;
10471;SDS011;5283;48.876;8.962;2022-08-03T05:02:52;6.30;;;2.43;;
10471;SDS011;5283;48.876;8.962;2022-08-03T05:05:20;2.70;;;2.43;;
10471;SDS011;5283;48.876;8.962;2022-08-03T05:07:47;5.13;;;2.60;;
10471;SDS011;5283;48.876;8.962;2022-08-03T05:10:15;5.50;;;2.40;;
10471;SDS011;5283;48.876;8.962;2022-08-03T05:12:43;5.17;;;2.70;;
10471;SDS011;5283;48.876;8.962;2022-08-03T05:15:13;5.17;;;2.43;;
10471;SDS011;5283;48.876;8.962;2022-08-03T05:17:40;2.63;;;2.40;;
10471;SDS011;5283;48.876;8.962;2022-08-03T05:20:08;4.30;;;2.43;;
10471;SDS011;5283;48.876;8.962;2022-08-03T05:22:35;4.30;;;2.20;;
10471;SDS011;5283;48.876;8.962;2022-08-03T05:25:02;6.13;;;2.30;;
10471;SDS011;5283;48.876;8.962;2022-08-03T05:27:42;3.67;;;2.30;;
10471;SDS011;5283;48.876;8.962;2022-08-03T05:30:09;3.00;;;2.10;;
10471;SDS011;5283;48.876;8.962;2022-08-03T05:32:36;2.77;;;2.40;;
10471;SDS011;5283;48.876;8.962;2022-08-03T05:35:03;2.73;;;2.47;;
10471;SDS011;5283;48.876;8.962;2022-08-03T05:37:30;2.33;;;2.10;;
10471;SDS011;5283;48.876;8.962;2022-08-03T05:39:56;2.67;;;2.47;;
10471;SDS011;5283;48.876;8.962;2022-08-03T05:42:23;3.63;;;2.20;;
10471;SDS011;5283;48.876;8.962;2022-08-03T05:44:50;2.23;;;2.13;;
10471;SDS011;5283;48.876;8.962;2022-08-03T05:47:16;4.47;;;2.27;;
10471;SDS011;5283;48.876;8.962;2022-08-03T05:49:43;6.13;;;2.70;;
10471;SDS011;5283;48.876;8.962;2022-08-03T05:52:10;3.43;;;3.10;;
10471;SDS011;5283;48.876;8.962;2022-08-03T05:54:36;3.50;;;2.83;;
10471;SDS011;5283;48.876;8.962;2022-08-03T05:57:03;8.80;;;3.30;;
10471;SDS011;5283;48.876;8.962;2022-08-03T05:59:30;3.93;;;3.13;;
10471;SDS011;5283;48.876;8.962;2022-08-03T06:02:04;6.90;;;3.33;;
10471;SDS011;5283;48.876;8.962;2022-08-03T06:04:31;5.80;;;3.20;;
10471;SDS011;5283;48.876;8.962;2022-08-03T06:06:57;5.65;;;3.25;;
10471;SDS011;5283;48.876;8.962;2022-08-03T06:09:24;4.65;;;3.00;;
10471;SDS011;5283;48.876;8.962;2022-08-03T06:11:51;3.30;;;2.70;;
10471;SDS011;5283;48.876;8.962;2022-08-03T06:14:17;4.13;;;2.83;;
10471;SDS011;5283;48.876;8.962;2022-08-03T06:16:44;5.68;;;2.92;;
10471;SDS011;5283;48.876;8.962;2022-08-03T06:19:11;2.72;;;2.60;;
10471;SDS011;5283;48.876;8.962;2022-08-03T06:21:37;2.80;;;2.60;;
10471;SDS011;5283;48.876;8.962;2022-08-03T06:24:04;3.13;;;2.65;;
10471;SDS011;5283;48.876;8.962;2022-08-03T06:26:31;3.00;;;2.58;;
10471;SDS011;5283;48.876;8.962;2022-08-03T06:28:58;2.78;;;2.42;;
10471;SDS011;5283;48.876;8.962;2022-08-03T06:31:25;2.70;;;2.50;;
10471;SDS011;5283;48.876;8.962;2022-08-03T06:33:54;4.55;;;2.90;;
10471;SDS011;5283;48.876;8.962;2022-08-03T06:36:21;5.30;;;2.40;;
10471;SDS011;5283;48.876;8.962;2022-08-03T06:38:47;4.53;;;2.50;;
10471;SDS011;5283;48.876;8.962;2022-08-03T06:41:14;2.80;;;2.60;;
10471;SDS011;5283;48.876;8.962;2022-08-03T06:43:41;5.68;;;2.60;;
10471;SDS011;5283;48.876;8.962;2022-08-03T06:46:08;4.50;;;2.40;;
10471;SDS011;5283;48.876;8.962;2022-08-03T06:48:36;4.07;;;2.83;;
10471;SDS011;5283;48.876;8.962;2022-08-03T06:51:02;2.45;;;2.30;;
10471;SDS011;5283;48.876;8.962;2022-08-03T06:53:29;2.65;;;2.45;;
10471;SDS011;5283;48.876;8.962;2022-08-03T06:55:56;2.92;;;2.45;;
10471;SDS011;5283;48.876;8.962;2022-08-03T06:58:23;4.30;;;2.53;;
10471;SDS011;5283;48.876;8.962;2022-08-03T07:00:49;3.53;;;2.50;;
10471;SDS011;5283;48.876;8.962;2022-08-03T07:03:16;4.97;;;2.63;;
10471;SDS011;5283;48.876;8.962;2022-08-03T07:05:43;2.33;;;2.13;;
10471;SDS011;5283;48.876;8.962;2022-08-03T07:08:14;2.60;;;2.40;;
10471;SDS011;5283;48.876;8.962;2022-08-03T07:10:41;5.13;;;2.83;;
10471;SDS011;5283;48.876;8.962;2022-08-03T07:13:08;3.17;;;2.30;;
10471;SDS011;5283;48.876;8.962;2022-08-03T07:15:35;2.85;;;2.42;;
10471;SDS011;5283;48.876;8.962;2022-08-03T07:18:02;3.47;;;2.40;;
10471;SDS011;5283;48.876;8.962;2022-08-03T07:20:29;3.17;;;2.78;;
10471;SDS011;5283;48.876;8.962;2022-08-03T07:22:57;3.15;;;2.60;;
10471;SDS011;5283;48.876;8.962;2022-08-03T07:25:24;2.83;;;2.40;;
10471;SDS011;5283;48.876;8.962;2022-08-03T07:27:51;5.15;;;2.20;;
10471;SDS011;5283;48.876;8.962;2022-08-03T07:30:17;5.75;;;2.53;;
10471;SDS011;5283;48.876;8.962;2022-08-03T07:32:44;7.93;;;2.50;;
10471;SDS011;5283;48.876;8.962;2022-08-03T07:35:11;7.40;;;2.67;;
10471;SDS011;5283;48.876;8.962;2022-08-03T07:37:37;3.85;;;2.00;;
10471;SDS011;5283;48.876;8.962;2022-08-03T07:40:04;3.78;;;2.22;;
10471;SDS011;5283;48.876;8.962;2022-08-03T07:42:31;5.80;;;2.05;;
10471;SDS011;5283;48.876;8.962;2022-08-03T07:44:58;2.38;;;2.08;;
10471;SDS011;5283;48.876;8.962;2022-08-03T07:47:26;3.42;;;1.92;;
10471;SDS011;5283;48.876;8.962;2022-08-03T07:49:54;4.45;;;1.90;;
10471;SDS011;5283;48.876;8.962;2022-08-03T07:52:22;2.00;;;1.77;;
10471;SDS011;5283;48.876;8.962;2022-08-03T07:55:08;5.35;;;2.10;;
10471;SDS011;5283;48.876;8.962;2022-08-03T07:57:35;2.92;;;2.22;;
10471;SDS011;5283;48.876;8.962;2022-08-03T08:00:06;6.50;;;2.40;;
10471;SDS011;5283;48.876;8.962;2022-08-03T08:02:39;4.43;;;2.20;;
10471;SDS011;5283;48.876;8.962;2022-08-03T08:05:06;7.32;;;2.10;;
10471;SDS011;5283;48.876;8.962;2022-08-03T08:07:33;5.78;;;2.40;;
10471;SDS011;5283;48.876;8.962;2022-08-03T08:10:00;2.50;;;2.17;;
10471;SDS011;5283;48.876;8.962;2022-08-03T08:12:27;6.22;;;1.77;;
10471;SDS011;5283;48.876;8.962;2022-08-03T08:14:53;3.35;;;2.08;;
10471;SDS011;5283;48.876;8.962;2022-08-03T08:17:20;3.40;;;1.63;;
10471;SDS011;5283;48.876;8.962;2022-08-03T08:19:47;2.50;;;1.45;;
10471;SDS011;5283;48.876;8.962;2022-08-03T08:22:13;3.08;;;1.65;;
10471;SDS011;5283;48.876;8.962;2022-08-03T08:24:40;4.88;;;2.05;;
10471;SDS011;5283;48.876;8.962;2022-08-03T08:27:09;4.72;;;1.90;;
10471;SDS011;5283;48.876;8.962;2022-08-03T08:29:37;4.50;;;2.13;;
10471;SDS011;5283;48.876;8.962;2022-08-03T08:32:04;4.65;;;1.80;;
10471;SDS011;5283;48.876;8.962;2022-08-03T08:34:31;2.45;;;1.55;;
10471;SDS011;5283;48.876;8.962;2022-08-03T08:36:57;5.10;;;1.92;;
10471;SDS011;5283;48.876;8.962;2022-08-03T08:39:24;2.70;;;1.67;;
10471;SDS011;5283;48.876;8.962;2022-08-03T08:41:51;1.73;;;1.60;;
10471;SDS011;5283;48.876;8.962;2022-08-03T08:44:18;3.28;;;2.42;;
10471;SDS011;5283;48.876;8.962;2022-08-03T08:46:45;5.00;;;2.20;;
10471;SDS011;5283;48.876;8.962;2022-08-03T08:49:13;3.22;;;1.70;;
10471;SDS011;5283;48.876;8.962;2022-08-03T08:51:43;4.13;;;1.90;;
10471;SDS011;5283;48.876;8.962;2022-08-03T08:54:13;3.20;;;2.08;;
10471;SDS011;5283;48.876;8.962;2022-08-03T08:56:43;2.77;;;1.80;;
10471;SDS011;5283;48.876;8.962;2022-08-03T08:59:10;3.97;;;1.65;;
10471;SDS011;5283;48.876;8.962;2022-08-03T09:01:37;3.45;;;1.70;;
10471;SDS011;5283;48.876;8.962;2022-08-03T09:04:07;5.22;;;1.63;;
10471;SDS011;5283;48.876;8.962;2022-08-03T09:06:34;6.38;;;1.75;;
10471;SDS011;5283;48.876;8.962;2022-08-03T09:09:01;2.63;;;1.80;;
10471;SDS011;5283;48.876;8.962;2022-08-03T09:11:27;2.72;;;1.95;;
10471;SDS011;5283;48.876;8.962;2022-08-03T09:13:54;3.28;;;1.88;;
10471;SDS011;5283;48.876;8.962;2022-08-03T09:16:21;1.70;;;1.60;;
10471;SDS011;5283;48.876;8.962;2022-08-03T09:18:49;3.05;;;2.00;;
10471;SDS011;5283;48.876;8.962;2022-08-03T09:21:22;3.47;;;1.80;;
10471;SDS011;5283;48.876;8.962;2022-08-03T09:23:59;3.17;;;1.75;;
10471;SDS011;5283;48.876;8.962;2022-08-03T09:26:29;2.85;;;1.70;;
10471;SDS011;5283;48.876;8.962;2022-08-03T09:28:57;3.97;;;1.90;;
10471;SDS011;5283;48.876;8.962;2022-08-03T09:31:33;1.40;;;1.30;;
10471;SDS011;5283;48.876;8.962;2022-08-03T09:34:08;2.67;;;1.77;;
10471;SDS011;5283;48.876;8.962;2022-08-03T09:36:40;2.10;;;1.95;;
10471;SDS011;5283;48.876;8.962;2022-08-03T09:39:12;5.25;;;1.83;;
10471;SDS011;5283;48.876;8.962;2022-08-03T09:41:41;2.50;;;1.70;;
10471;SDS011;5283;48.876;8.962;2022-08-03T09:44:11;3.28;;;1.42;;
10471;SDS011;5283;48.876;8.962;2022-08-03T09:46:52;1.80;;;1.70;;
10471;SDS011;5283;48.876;8.962;2022-08-03T09:49:21;3.93;;;1.87;;
10471;SDS011;5283;48.876;8.962;2022-08-03T09:51:48;2.20;;;2.00;;
10471;SDS011;5283;48.876;8.962;2022-08-03T09:54:27;4.50;;;1.50;;
10471;SDS011;5283;48.876;8.962;2022-08-03T09:56:55;3.40;;;1.60;;
10471;SDS011;5283;48.876;8.962;2022-08-03T09:59:24;2.75;;;1.67;;
10471;SDS011;5283;48.876;8.962;2022-08-03T10:01:52;2.78;;;1.70;;
10471;SDS011;5283;48.876;8.962;2022-08-03T10:04:19;1.80;;;1.70;;
10471;SDS011;5283;48.876;8.962;2022-08-03T10:07:05;1.83;;;1.73;;
10471;SDS011;5283;48.876;8.962;2022-08-03T10:09:33;1.92;;;1.52;;
10471;SDS011;5283;48.876;8.962;2022-08-03T10:12:08;1.48;;;1.42;;
10471;SDS011;5283;48.876;8.962;2022-08-03T10:14:39;1.80;;;1.40;;
10471;SDS011;5283;48.876;8.962;2022-08-03T10:17:08;1.77;;;1.67;;
10471;SDS011;5283;48.876;8.962;2022-08-03T10:19:34;2.65;;;1.48;;
10471;SDS011;5283;48.876;8.962;2022-08-03T10:22:12;1.63;;;1.52;;
10471;SDS011;5283;48.876;8.962;2022-08-03T10:24:48;2.15;;;1.63;;
10471;SDS011;5283;48.876;8.962;2022-08-03T10:27:19;2.67;;;1.77;;
10471;SDS011;5283;48.876;8.962;2022-08-03T10:29:58;1.52;;;1.42;;
10471;SDS011;5283;48.876;8.962;2022-08-03T10:37:43;1.67;;;1.58;;
10471;SDS011;5283;48.876;8.962;2022-08-03T10:40:13;1.75;;;1.50;;
10471;SDS011;5283;48.876;8.962;2022-08-03T10:42:48;1.45;;;1.45;;
10471;SDS011;5283;48.876;8.962;2022-08-03T10:45:27;2.05;;;1.65;;
10471;SDS011;5283;48.876;8.962;2022-08-03T10:47:54;2.05;;;1.55;;
10471;SDS011;5283;48.876;8.962;2022-08-03T10:50:22;2.25;;;1.48;;
10471;SDS011;5283;48.876;8.962;2022-08-03T10:52:54;1.60;;;1.50;;
10471;SDS011;5283;48.876;8.962;2022-08-03T11:01:08;1.85;;;1.60;;
10471;SDS011;5283;48.876;8.962;2022-08-03T11:06:34;1.88;;;1.77;;
10471;SDS011;5283;48.876;8.962;2022-08-03T11:09:12;1.80;;;1.60;;
10471;SDS011;5283;48.876;8.962;2022-08-03T11:11:42;2.60;;;1.42;;
10471;SDS011;5283;48.876;8.962;2022-08-03T11:14:20;1.60;;;1.50;;
10471;SDS011;5283;48.876;8.962;2022-08-03T11:17:04;3.00;;;1.48;;
10471;SDS011;5283;48.876;8.962;2022-08-03T11:19:42;1.83;;;1.73;;
10471;SDS011;5283;48.876;8.962;2022-08-03T11:22:10;2.22;;;1.58;;
10471;SDS011;5283;48.876;8.962;2022-08-03T11:35:16;2.35;;;1.77;;
10471;SDS011;5283;48.876;8.962;2022-08-03T11:40:39;2.35;;;1.60;;
10471;SDS011;5283;48.876;8.962;2022-08-03T11:46:01;2.85;;;1.85;;
10471;SDS011;5283;48.876;8.962;2022-08-03T11:48:33;1.80;;;1.70;;
10471;SDS011;5283;48.876;8.962;2022-08-03T11:51:04;3.53;;;1.80;;
10471;SDS011;5283;48.876;8.962;2022-08-03T11:53:43;2.13;;;1.70;;
10471;SDS011;5283;48.876;8.962;2022-08-03T11:56:12;1.88;;;1.77;;
10471;SDS011;5283;48.876;8.962;2022-08-03T11:58:49;3.53;;;1.73;;
10471;SDS011;5283;48.876;8.962;2022-08-03T12:01:19;1.83;;;1.70;;
10471;SDS011;5283;48.876;8.962;2022-08-03T12:03:48;2.97;;;1.88;;
10471;SDS011;5283;48.876;8.962;2022-08-03T12:06:15;2.13;;;1.90;;
10471;SDS011;5283;48.876;8.962;2022-08-03T12:08:43;2.25;;;1.73;;
10471;SDS011;5283;48.876;8.962;2022-08-03T12:11:12;1.92;;;1.80;;
10471;SDS011;5283;48.876;8.962;2022-08-03T12:13:41;4.28;;;2.00;;
10471;SDS011;5283;48.876;8.962;2022-08-03T12:16:17;1.95;;;1.80;;
10471;SDS011;5283;48.876;8.962;2022-08-03T12:19:21;1.90;;;1.73;;
10471;SDS011;5283;48.876;8.962;2022-08-03T12:21:47;1.85;;;1.75;;
10471;SDS011;5283;48.876;8.962;2022-08-03T12:24:15;1.83;;;1.73;;
10471;SDS011;5283;48.876;8.962;2022-08-03T12:26:43;1.70;;;1.60;;
10471;SDS011;5283;48.876;8.962;2022-08-03T12:29:16;1.80;;;1.67;;
10471;SDS011;5283;48.876;8.962;2022-08-03T12:31:44;1.70;;;1.60;;
10471;SDS011;5283;48.876;8.962;2022-08-03T12:34:11;1.33;;;1.33;;
10471;SDS011;5283;48.876;8.962;2022-08-03T12:36:48;2.45;;;1.60;;
10471;SDS011;5283;48.876;8.962;2022-08-03T12:39:21;1.90;;;1.80;;
10471;SDS011;5283;48.876;8.962;2022-08-03T12:41:51;1.67;;;1.58;;
10471;SDS011;5283;48.876;8.962;2022-08-03T12:44:27;1.52;;;1.52;;
10471;SDS011;5283;48.876;8.962;2022-08-03T12:46:58;1.80;;;1.70;;
10471;SDS011;5283;48.876;8.962;2022-08-03T12:49:26;1.92;;;1.63;;
10471;SDS011;5283;48.876;8.962;2022-08-03T12:54:20;1.60;;;1.50;;
10471;SDS011;5283;48.876;8.962;2022-08-03T12:56:59;3.78;;;1.80;;
10471;SDS011;5283;48.876;8.962;2022-08-03T12:59:34;1.98;;;1.70;;
10471;SDS011;5283;48.876;8.962;2022-08-03T13:02:15;2.50;;;1.35;;
10471;SDS011;5283;48.876;8.962;2022-08-03T13:04:43;2.58;;;1.50;;
10471;SDS011;5283;48.876;8.962;2022-08-03T13:07:11;1.80;;;1.70;;
10471;SDS011;5283;48.876;8.962;2022-08-03T13:09:44;1.70;;;1.60;;
10471;SDS011;5283;48.876;8.962;2022-08-03T13:12:21;1.70;;;1.52;;
10471;SDS011;5283;48.876;8.962;2022-08-03T13:14:56;2.65;;;1.70;;
10471;SDS011;5283;48.876;8.962;2022-08-03T13:17:24;4.38;;;1.95;;
10471;SDS011;5283;48.876;8.962;2022-08-03T13:19:52;3.63;;;1.77;;
10471;SDS011;5283;48.876;8.962;2022-08-03T13:22:20;2.70;;;1.63;;
10471;SDS011;5283;48.876;8.962;2022-08-03T13:24:52;3.28;;;1.73;;
10471;SDS011;5283;48.876;8.962;2022-08-03T13:27:22;2.80;;;1.65;;
10471;SDS011;5283;48.876;8.962;2022-08-03T13:29:53;2.60;;;2.00;;
10471;SDS011;5283;48.876;8.962;2022-08-03T13:32:20;2.53;;;2.17;;
10471;SDS011;5283;48.876;8.962;2022-08-03T13:34:48;2.35;;;1.63;;
10471;SDS011;5283;48.876;8.962;2022-08-03T13:37:14;2.85;;;1.80;;
10471;SDS011;5283;48.876;8.962;2022-08-03T13:39:41;2.00;;;1.90;;
10471;SDS011;5283;48.876;8.962;2022-08-03T13:42:08;3.55;;;1.85;;
10471;SDS011;5283;48.876;8.962;2022-08-03T13:44:35;1.67;;;1.58;;
10471;SDS011;5283;48.876;8.962;2022-08-03T13:47:02;1.73;;;1.63;;
10471;SDS011;5283;48.876;8.962;2022-08-03T13:49:29;3.58;;;1.85;;
10471;SDS011;5283;48.876;8.962;2022-08-03T13:51:56;2.72;;;1.70;;
10471;SDS011;5283;48.876;8.962;2022-08-03T13:54:23;1.92;;;1.70;;
10471;SDS011;5283;48.876;8.962;2022-08-03T13:56:50;1.85;;;1.75;;
10471;SDS011;5283;48.876;8.962;2022-08-03T13:59:22;2.50;;;1.73;;
10471;SDS011;5283;48.876;8.962;2022-08-03T14:01:50;2.35;;;1.90;;
10471;SDS011;5283;48.876;8.962;2022-08-03T14:04:20;4.60;;;1.90;;
10471;SDS011;5283;48.876;8.962;2022-08-03T14:06:47;2.45;;;1.90;;
10471;SDS011;5283;48.876;8.962;2022-08-03T14:09:14;3.03;;;1.90;;
10471;SDS011;5283;48.876;8.962;2022-08-03T14:11:42;3.42;;;1.73;;
10471;SDS011;5283;48.876;8.962;2022-08-03T14:14:10;3.60;;;1.60;;
10471;SDS011;5283;48.876;8.962;2022-08-03T14:16:37;3.20;;;1.80;;
10471;SDS011;5283;48.876;8.962;2022-08-03T14:19:04;3.13;;;2.00;;
10471;SDS011;5283;48.876;8.962;2022-08-03T14:21:31;3.40;;;1.90;;
10471;SDS011;5283;48.876;8.962;2022-08-03T14:23:59;2.30;;;2.05;;
10471;SDS011;5283;48.876;8.962;2022-08-03T14:26:25;4.53;;;1.92;;
10471;SDS011;5283;48.876;8.962;2022-08-03T14:28:52;2.00;;;1.80;;
10471;SDS011;5283;48.876;8.962;2022-08-03T14:31:19;1.80;;;1.70;;
10471;SDS011;5283;48.876;8.962;2022-08-03T14:33:45;3.67;;;1.95;;
10471;SDS011;5283;48.876;8.962;2022-08-03T14:36:12;1.90;;;1.80;;
10471;SDS011;5283;48.876;8.962;2022-08-03T14:38:39;2.47;;;2.03;;
10471;SDS011;5283;48.876;8.962;2022-08-03T14:41:05;4.53;;;1.83;;
10471;SDS011;5283;48.876;8.962;2022-08-03T14:43:32;4.63;;;1.85;;
10471;SDS011;5283;48.876;8.962;2022-08-03T14:45:59;2.35;;;1.92;;
10471;SDS011;5283;48.876;8.962;2022-08-03T14:48:26;1.85;;;1.75;;
10471;SDS011;5283;48.876;8.962;2022-08-03T14:50:52;3.60;;;1.83;;
10471;SDS011;5283;48.876;8.962;2022-08-03T14:53:20;2.47;;;2.00;;
10471;SDS011;5283;48.876;8.962;2022-08-03T14:55:47;1.85;;;1.75;;
10471;SDS011;5283;48.876;8.962;2022-08-03T14:58:14;2.85;;;1.60;;
10471;SDS011;5283;48.876;8.962;2022-08-03T15:00:41;2.25;;;1.90;;
10471;SDS011;5283;48.876;8.962;2022-08-03T15:03:08;2.33;;;2.10;;
10471;SDS011;5283;48.876;8.962;2022-08-03T15:05:35;2.30;;;2.10;;
10471;SDS011;5283;48.876;8.962;2022-08-03T15:08:02;2.28;;;1.90;;
10471;SDS011;5283;48.876;8.962;2022-08-03T15:10:31;2.30;;;1.90;;
10471;SDS011;5283;48.876;8.962;2022-08-03T15:12:58;2.08;;;1.98;;
10471;SDS011;5283;48.876;8.962;2022-08-03T15:15:24;2.90;;;2.00;;
10471;SDS011;5283;48.876;8.962;2022-08-03T15:17:51;2.17;;;1.83;;
10471;SDS011;5283;48.876;8.962;2022-08-03T15:20:18;2.10;;;2.00;;
10471;SDS011;5283;48.876;8.962;2022-08-03T15:22:45;2.05;;;1.95;;
10471;SDS011;5283;48.876;8.962;2022-08-03T15:25:12;1.98;;;1.70;;
10471;SDS011;5283;48.876;8.962;2022-08-03T15:27:38;2.85;;;2.25;;
10471;SDS011;5283;48.876;8.962;2022-08-03T15:30:05;1.75;;;1.65;;
10471;SDS011;5283;48.876;8.962;2022-08-03T15:32:33;1.90;;;1.80;;
10471;SDS011;5283;48.876;8.962;2022-08-03T15:35:00;2.08;;;1.90;;
10471;SDS011;5283;48.876;8.962;2022-08-03T15:37:26;2.05;;;1.85;;
10471;SDS011;5283;48.876;8.962;2022-08-03T15:39:56;1.98;;;1.80;;
10471;SDS011;5283;48.876;8.962;2022-08-03T15:42:23;2.75;;;1.90;;
10471;SDS011;5283;48.876;8.962;2022-08-03T15:44:50;1.95;;;1.85;;
10471;SDS011;5283;48.876;8.962;2022-08-03T15:47:17;2.15;;;1.95;;
10471;SDS011;5283;48.876;8.962;2022-08-03T15:49:43;2.83;;;2.00;;
10471;SDS011;5283;48.876;8.962;2022-08-03T15:52:10;2.30;;;1.90;;
10471;SDS011;5283;48.876;8.962;2022-08-03T15:54:37;3.45;;;2.05;;